Celebrity Mercury — 9HJG9 — position and weather

sailwx.info

Track history (hours):
 
Tides and Currents Weather Stations Pressure Air Temp Water Temp Dewpoint Dewpoint Depression Visibility Wind Speed Wind Dir Waves Ship Positions

Celebrity Mercury

Last reported at 2018-Oct-19 18:58 UTC. Time now 2018-Oct-20 13:50 UTC.
Position N 37°17' E 023°38'.

Length 264 m; draft 8.5 m.

Type: Ship. MMSI: 249053000.

Date/timePositionNaut miles runAvg speedWind from/ knotsBaromVisibWave heightAir tempDewpointWater temp
2018-Oct-19 18:58N 37°17' E 023°38'716.2
2018-Oct-19 18:31N 37°24' E 023°40'716.3
2018-Oct-19 18:04N 37°31' E 023°42'116.2
2018-Oct-19 18:01N 37°32' E 023°42'816.1
2018-Oct-19 17:31N 37°40' E 023°42'716.0
2018-Oct-19 17:04N 37°47' E 023°38'116.0
2018-Oct-19 17:01N 37°48' E 023°38'815.2
2018-Oct-19 16:30N 37°55' E 023°36'2 4.0
2018-Oct-19 16:03N 37°56' E 023°38'0 0.6
2018-Oct-19 16:00N 37°56' E 023°38'0 0.0
2018-Oct-19 15:30N 37°56' E 023°38'0 0.0
2018-Oct-19 15:03N 37°56' E 023°38'0 0.0
2018-Oct-19 14:57N 37°56' E 023°38'0 0.0
2018-Oct-19 14:27N 37°56' E 023°38'0 0.0
2018-Oct-19 13:30N 37°56' E 023°38'0 0.0
2018-Oct-19 13:03N 37°56' E 023°38'0 0.0
2018-Oct-19 13:00N 37°56' E 023°38'0 0.0
2018-Oct-19 12:30N 37°56' E 023°38'0 0.0
2018-Oct-19 12:03N 37°56' E 023°38'0 0.0
2018-Oct-19 12:00N 37°56' E 023°38'0 0.0
2018-Oct-19 11:27N 37°56' E 023°38'0 0.0
2018-Oct-19 11:03N 37°56' E 023°38'0 0.0
2018-Oct-19 11:00N 37°56' E 023°38'0 0.0
2018-Oct-19 10:30N 37°56' E 023°38'0 0.0
2018-Oct-19 10:03N 37°56' E 023°38'0 0.0
2018-Oct-19 10:00N 37°56' E 023°38'0 0.0
2018-Oct-19 09:30N 37°56' E 023°38'0 0.0
2018-Oct-19 09:03N 37°56' E 023°38'0 0.0
2018-Oct-19 09:00N 37°56' E 023°38'0 0.0
2018-Oct-19 08:27N 37°56' E 023°38'0 0.0
2018-Oct-19 08:03N 37°56' E 023°38'0 0.0
2018-Oct-19 08:00N 37°56' E 023°38'0 0.0
2018-Oct-19 07:30N 37°56' E 023°38'0 0.0
2018-Oct-19 07:03N 37°56' E 023°38'0 0.0
2018-Oct-19 06:57N 37°56' E 023°38'0 0.0
2018-Oct-19 06:30N 37°56' E 023°38'0 0.0
2018-Oct-19 06:03N 37°56' E 023°38'0 0.0
2018-Oct-19 05:57N 37°56' E 023°38'0 0.0
2018-Oct-19 05:30N 37°56' E 023°38'0 0.0
2018-Oct-19 05:03N 37°56' E 023°38'0 0.0
2018-Oct-19 05:00N 37°56' E 023°38'0 0.0
2018-Oct-19 04:27N 37°56' E 023°38'0 0.0
2018-Oct-19 04:03N 37°56' E 023°38'0 0.0
2018-Oct-19 04:00N 37°56' E 023°38'0 0.0
2018-Oct-19 03:27N 37°56' E 023°38'0 0.0
2018-Oct-19 03:03N 37°56' E 023°38'0 0.0
2018-Oct-19 03:00N 37°56' E 023°38'0 0.0
2018-Oct-19 02:30N 37°56' E 023°38'0 0.1
2018-Oct-19 02:03N 37°56' E 023°38'0 0.7
2018-Oct-19 02:00N 37°56' E 023°38'2 3.7
2018-Oct-19 01:30N 37°55' E 023°37'3 6.6
2018-Oct-19 01:03N 37°52' E 023°38'0 8.4
2018-Oct-19 01:00N 37°52' E 023°38'4 8.2
2018-Oct-19 00:30N 37°48' E 023°40'4 8.3
2018-Oct-19 00:03N 37°45' E 023°42'0 8.4
2018-Oct-19 00:00N 37°44' E 023°43'4 8.3
2018-Oct-18 23:30N 37°41' E 023°45'4 7.8
2018-Oct-18 23:03N 37°38' E 023°47'0 8.1
2018-Oct-18 23:00N 37°37' E 023°48'4 7.9
2018-Oct-18 22:30N 37°36' E 023°52'4 8.3
2018-Oct-18 22:03N 37°34' E 023°57'0 8.4
2018-Oct-18 22:00N 37°34' E 023°57'5 8.6
2018-Oct-18 21:22N 37°32' E 024°03'7 8.5
2018-Oct-18 20:30N 37°30' E 024°12'2611.7
2018-Oct-18 18:19N 37°33' E 024°44'312.3
2018-Oct-18 18:03N 37°33' E 024°48'112.6
2018-Oct-18 18:00N 37°33' E 024°49'612.8
2018-Oct-18 17:30N 37°33' E 024°57'612.7
2018-Oct-18 17:03N 37°32' E 025°04'112.7
2018-Oct-18 17:00N 37°31' E 025°05'612.4
2018-Oct-18 16:30N 37°29' E 025°12'511.8
2018-Oct-18 16:03N 37°28' E 025°19'0 5.5
2018-Oct-18 16:00N 37°28' E 025°19'0 0.5
2018-Oct-18 15:29N 37°28' E 025°19'0 0.0
2018-Oct-18 15:02N 37°28' E 025°19'0 0.0
2018-Oct-18 14:59N 37°28' E 025°19'0 0.0
2018-Oct-18 14:29N 37°28' E 025°19'0 0.0
2018-Oct-18 13:59N 37°28' E 025°19'0 0.0
2018-Oct-18 13:29N 37°28' E 025°19'0 0.0
2018-Oct-18 13:02N 37°28' E 025°19'0 0.0
2018-Oct-18 12:59N 37°28' E 025°19'0 0.0
2018-Oct-18 12:29N 37°28' E 025°19'0 0.0
2018-Oct-18 12:02N 37°28' E 025°19'0 0.0
2018-Oct-18 11:59N 37°28' E 025°19'0 0.0
2018-Oct-18 11:29N 37°28' E 025°19'0 0.0
2018-Oct-18 11:02N 37°28' E 025°19'0 0.0
2018-Oct-18 10:59N 37°28' E 025°19'0 0.0
2018-Oct-18 10:29N 37°28' E 025°19'0 0.0
2018-Oct-18 10:02N 37°28' E 025°19'0 0.0
2018-Oct-18 09:59N 37°28' E 025°19'0 0.0
2018-Oct-18 09:26N 37°28' E 025°19'0 0.0
2018-Oct-18 09:02N 37°28' E 025°19'0 0.0
2018-Oct-18 08:59N 37°28' E 025°19'0 0.0
2018-Oct-18 08:29N 37°28' E 025°19'0 0.0
2018-Oct-18 08:02N 37°28' E 025°19'0 0.0
2018-Oct-18 07:59N 37°28' E 025°19'0 0.0
2018-Oct-18 07:29N 37°28' E 025°19'0 0.0
2018-Oct-18 07:02N 37°28' E 025°19'0 0.0
2018-Oct-18 06:59N 37°28' E 025°19'0 0.0
2018-Oct-18 06:29N 37°28' E 025°19'0 0.0
2018-Oct-18 06:02N 37°28' E 025°19'0 0.0
2018-Oct-18 05:59N 37°28' E 025°19'0 0.0
2018-Oct-18 05:29N 37°28' E 025°19'0 0.0
2018-Oct-18 05:02N 37°28' E 025°19'0 0.0
2018-Oct-18 04:59N 37°28' E 025°19'0 0.0
2018-Oct-18 04:29N 37°28' E 025°19'0 0.0
2018-Oct-18 04:04N 37°28' E 025°19'0 0.1
2018-Oct-18 04:01N 37°28' E 025°19'1 2.0
2018-Oct-18 03:30N 37°27' E 025°18'4 9.1
2018-Oct-18 03:03N 37°31' E 025°19'115.0
2018-Oct-18 03:00N 37°32' E 025°20'714.5
2018-Oct-18 02:30N 37°32' E 025°29'613.6
2018-Oct-18 02:04N 37°30' E 025°36'0 8.7
2018-Oct-18 02:01N 37°29' E 025°37'611.7
2018-Oct-18 01:30N 37°27' E 025°44'512.3
2018-Oct-18 01:04N 37°25' E 025°50'0 9.8
2018-Oct-18 01:01N 37°25' E 025°51'  
2018-Oct-13 19:18N 37°02' E 015°27'30 1.9
2018-Oct-13 03:26N 37°32' E 015°22'3 8.2
2018-Oct-13 03:02N 37°33' E 015°26'2 8.0
2018-Oct-13 02:47N 37°34' E 015°28'5 8.2
2018-Oct-13 02:13N 37°36' E 015°34'2 8.4
2018-Oct-13 02:02N 37°36' E 015°35'0 8.3
2018-Oct-13 01:59N 37°36' E 015°36'7 8.3
2018-Oct-13 01:11N 37°39' E 015°44'2 8.1
2018-Oct-13 00:54N 37°39' E 015°47'4 8.1
2018-Oct-13 00:23N 37°41' E 015°51'3 8.2
2018-Oct-13 00:03N 37°42' E 015°55'1 8.3
2018-Oct-12 23:59N 37°42' E 015°55'5 8.3
2018-Oct-12 23:24N 37°45' E 016°00'  
Track history (hours):
 
Tides and Currents Weather Stations Pressure Air Temp Water Temp Dewpoint Dewpoint Depression Visibility Wind Speed Wind Dir Waves Ship Positions

Celebrity Mercury

Last reported at 2018-Oct-19 18:58 UTC. Time now 2018-Oct-20 13:50 UTC.
Position N 37°17' E 023°38'.

Length 264 m; draft 8.5 m.

Type: Ship. MMSI: 249053000.

Date/timePositionNaut miles runAvg speedWind from/ knotsBaromVisibWave heightAir tempDewpointWater temp
2018-Oct-19 18:58N 37°17' E 023°38'716.2
2018-Oct-19 18:31N 37°24' E 023°40'716.3
2018-Oct-19 18:04N 37°31' E 023°42'116.2
2018-Oct-19 18:01N 37°32' E 023°42'816.1
2018-Oct-19 17:31N 37°40' E 023°42'716.0
2018-Oct-19 17:04N 37°47' E 023°38'116.0
2018-Oct-19 17:01N 37°48' E 023°38'815.2
2018-Oct-19 16:30N 37°55' E 023°36'2 4.0
2018-Oct-19 16:03N 37°56' E 023°38'0 0.6
2018-Oct-19 16:00N 37°56' E 023°38'0 0.0
2018-Oct-19 15:30N 37°56' E 023°38'0 0.0
2018-Oct-19 15:03N 37°56' E 023°38'0 0.0
2018-Oct-19 14:57N 37°56' E 023°38'0 0.0
2018-Oct-19 14:27N 37°56' E 023°38'0 0.0
2018-Oct-19 13:30N 37°56' E 023°38'0 0.0
2018-Oct-19 13:03N 37°56' E 023°38'0 0.0
2018-Oct-19 13:00N 37°56' E 023°38'0 0.0
2018-Oct-19 12:30N 37°56' E 023°38'0 0.0
2018-Oct-19 12:03N 37°56' E 023°38'0 0.0
2018-Oct-19 12:00N 37°56' E 023°38'0 0.0
2018-Oct-19 11:27N 37°56' E 023°38'0 0.0
2018-Oct-19 11:03N 37°56' E 023°38'0 0.0
2018-Oct-19 11:00N 37°56' E 023°38'0 0.0
2018-Oct-19 10:30N 37°56' E 023°38'0 0.0
2018-Oct-19 10:03N 37°56' E 023°38'0 0.0
2018-Oct-19 10:00N 37°56' E 023°38'0 0.0
2018-Oct-19 09:30N 37°56' E 023°38'0 0.0
2018-Oct-19 09:03N 37°56' E 023°38'0 0.0
2018-Oct-19 09:00N 37°56' E 023°38'0 0.0
2018-Oct-19 08:27N 37°56' E 023°38'0 0.0
2018-Oct-19 08:03N 37°56' E 023°38'0 0.0
2018-Oct-19 08:00N 37°56' E 023°38'0 0.0
2018-Oct-19 07:30N 37°56' E 023°38'0 0.0
2018-Oct-19 07:03N 37°56' E 023°38'0 0.0
2018-Oct-19 06:57N 37°56' E 023°38'0 0.0
2018-Oct-19 06:30N 37°56' E 023°38'0 0.0
2018-Oct-19 06:03N 37°56' E 023°38'0 0.0
2018-Oct-19 05:57N 37°56' E 023°38'0 0.0
2018-Oct-19 05:30N 37°56' E 023°38'0 0.0
2018-Oct-19 05:03N 37°56' E 023°38'0 0.0
2018-Oct-19 05:00N 37°56' E 023°38'0 0.0
2018-Oct-19 04:27N 37°56' E 023°38'0 0.0
2018-Oct-19 04:03N 37°56' E 023°38'0 0.0
2018-Oct-19 04:00N 37°56' E 023°38'0 0.0
2018-Oct-19 03:27N 37°56' E 023°38'0 0.0
2018-Oct-19 03:03N 37°56' E 023°38'0 0.0
2018-Oct-19 03:00N 37°56' E 023°38'0 0.0
2018-Oct-19 02:30N 37°56' E 023°38'0 0.1
2018-Oct-19 02:03N 37°56' E 023°38'0 0.7
2018-Oct-19 02:00N 37°56' E 023°38'2 3.7
2018-Oct-19 01:30N 37°55' E 023°37'3 6.6
2018-Oct-19 01:03N 37°52' E 023°38'0 8.4
2018-Oct-19 01:00N 37°52' E 023°38'4 8.2
2018-Oct-19 00:30N 37°48' E 023°40'4 8.3
2018-Oct-19 00:03N 37°45' E 023°42'0 8.4
2018-Oct-19 00:00N 37°44' E 023°43'4 8.3
2018-Oct-18 23:30N 37°41' E 023°45'4 7.8
2018-Oct-18 23:03N 37°38' E 023°47'0 8.1
2018-Oct-18 23:00N 37°37' E 023°48'4 7.9
2018-Oct-18 22:30N 37°36' E 023°52'4 8.3
2018-Oct-18 22:03N 37°34' E 023°57'0 8.4
2018-Oct-18 22:00N 37°34' E 023°57'5 8.6
2018-Oct-18 21:22N 37°32' E 024°03'7 8.5
2018-Oct-18 20:30N 37°30' E 024°12'2611.7
2018-Oct-18 18:19N 37°33' E 024°44'312.3
2018-Oct-18 18:03N 37°33' E 024°48'112.6
2018-Oct-18 18:00N 37°33' E 024°49'612.8
2018-Oct-18 17:30N 37°33' E 024°57'612.7
2018-Oct-18 17:03N 37°32' E 025°04'112.7
2018-Oct-18 17:00N 37°31' E 025°05'612.4
2018-Oct-18 16:30N 37°29' E 025°12'511.8
2018-Oct-18 16:03N 37°28' E 025°19'0 5.5
2018-Oct-18 16:00N 37°28' E 025°19'0 0.5
2018-Oct-18 15:29N 37°28' E 025°19'0 0.0
2018-Oct-18 15:02N 37°28' E 025°19'0 0.0
2018-Oct-18 14:59N 37°28' E 025°19'0 0.0
2018-Oct-18 14:29N 37°28' E 025°19'0 0.0
2018-Oct-18 13:59N 37°28' E 025°19'0 0.0
2018-Oct-18 13:29N 37°28' E 025°19'0 0.0
2018-Oct-18 13:02N 37°28' E 025°19'0 0.0
2018-Oct-18 12:59N 37°28' E 025°19'0 0.0
2018-Oct-18 12:29N 37°28' E 025°19'0 0.0
2018-Oct-18 12:02N 37°28' E 025°19'0 0.0
2018-Oct-18 11:59N 37°28' E 025°19'0 0.0
2018-Oct-18 11:29N 37°28' E 025°19'0 0.0
2018-Oct-18 11:02N 37°28' E 025°19'0 0.0
2018-Oct-18 10:59N 37°28' E 025°19'0 0.0
2018-Oct-18 10:29N 37°28' E 025°19'0 0.0
2018-Oct-18 10:02N 37°28' E 025°19'0 0.0
2018-Oct-18 09:59N 37°28' E 025°19'0 0.0
2018-Oct-18 09:26N 37°28' E 025°19'0 0.0
2018-Oct-18 09:02N 37°28' E 025°19'0 0.0
2018-Oct-18 08:59N 37°28' E 025°19'0 0.0
2018-Oct-18 08:29N 37°28' E 025°19'0 0.0
2018-Oct-18 08:02N 37°28' E 025°19'0 0.0
2018-Oct-18 07:59N 37°28' E 025°19'0 0.0
2018-Oct-18 07:29N 37°28' E 025°19'0 0.0
2018-Oct-18 07:02N 37°28' E 025°19'0 0.0
2018-Oct-18 06:59N 37°28' E 025°19'0 0.0
2018-Oct-18 06:29N 37°28' E 025°19'0 0.0
2018-Oct-18 06:02N 37°28' E 025°19'0 0.0
2018-Oct-18 05:59N 37°28' E 025°19'0 0.0
2018-Oct-18 05:29N 37°28' E 025°19'0 0.0
2018-Oct-18 05:02N 37°28' E 025°19'0 0.0
2018-Oct-18 04:59N 37°28' E 025°19'0 0.0
2018-Oct-18 04:29N 37°28' E 025°19'0 0.0
2018-Oct-18 04:04N 37°28' E 025°19'0 0.1
2018-Oct-18 04:01N 37°28' E 025°19'1 2.0
2018-Oct-18 03:30N 37°27' E 025°18'4 9.1
2018-Oct-18 03:03N 37°31' E 025°19'115.0
2018-Oct-18 03:00N 37°32' E 025°20'714.5
2018-Oct-18 02:30N 37°32' E 025°29'613.6
2018-Oct-18 02:04N 37°30' E 025°36'0 8.7
2018-Oct-18 02:01N 37°29' E 025°37'611.7
2018-Oct-18 01:30N 37°27' E 025°44'512.3
2018-Oct-18 01:04N 37°25' E 025°50'0 9.8
2018-Oct-18 01:01N 37°25' E 025°51'  
2018-Oct-13 19:18N 37°02' E 015°27'30 1.9
2018-Oct-13 03:26N 37°32' E 015°22'3 8.2
2018-Oct-13 03:02N 37°33' E 015°26'2 8.0
2018-Oct-13 02:47N 37°34' E 015°28'5 8.2
2018-Oct-13 02:13N 37°36' E 015°34'2 8.4
2018-Oct-13 02:02N 37°36' E 015°35'0 8.3
2018-Oct-13 01:59N 37°36' E 015°36'7 8.3
2018-Oct-13 01:11N 37°39' E 015°44'2 8.1
2018-Oct-13 00:54N 37°39' E 015°47'4 8.1
2018-Oct-13 00:23N 37°41' E 015°51'3 8.2
2018-Oct-13 00:03N 37°42' E 015°55'1 8.3
2018-Oct-12 23:59N 37°42' E 015°55'5 8.3
2018-Oct-12 23:24N 37°45' E 016°00'  

Dump ship's entire track history